createdAt,value
2022-12-22T00:01:16.994Z,20.23
2022-12-22T00:04:02.384Z,21.80
2022-12-22T00:06:47.893Z,19.33
2022-12-22T00:09:33.120Z,19.70
2022-12-22T00:12:18.494Z,19.10
2022-12-22T00:15:04.781Z,22.55
2022-12-22T00:17:50.339Z,22.98
2022-12-22T00:20:38.416Z,22.35
2022-12-22T00:23:24.452Z,21.25
2022-12-22T00:26:09.924Z,21.83
2022-12-22T00:28:56.362Z,21.40
2022-12-22T00:31:42.317Z,23.85
2022-12-22T00:34:39.308Z,23.30
2022-12-22T00:37:24.781Z,22.38
2022-12-22T00:40:10.361Z,23.17
2022-12-22T00:42:55.747Z,28.98
2022-12-22T00:45:41.413Z,27.77
2022-12-22T00:48:43.355Z,26.80
2022-12-22T00:51:29.540Z,32.88
2022-12-22T00:54:15.899Z,33.28
2022-12-22T00:57:01.689Z,32.85
2022-12-22T00:59:47.649Z,33.38
2022-12-22T01:02:33.668Z,31.95
2022-12-22T01:05:19.373Z,35.20
2022-12-22T01:08:05.172Z,29.30
2022-12-22T01:10:51.115Z,28.95
2022-12-22T01:13:36.585Z,28.23
2022-12-22T01:16:22.093Z,25.63
2022-12-22T01:19:07.443Z,30.35
2022-12-22T01:21:53.074Z,26.08
2022-12-22T01:24:38.439Z,26.30
2022-12-22T01:27:23.820Z,24.90
2022-12-22T01:30:09.138Z,27.80
2022-12-22T01:32:54.342Z,26.48
2022-12-22T01:35:45.736Z,28.00
2022-12-22T01:38:31.443Z,27.33
2022-12-22T01:41:18.815Z,25.42
2022-12-22T01:44:04.378Z,27.45
2022-12-22T01:46:55.958Z,24.48
2022-12-22T01:49:53.586Z,24.80
2022-12-22T01:52:43.700Z,26.65
2022-12-22T01:55:35.734Z,23.58
2022-12-22T01:58:21.191Z,21.77
2022-12-22T02:01:06.671Z,23.92
2022-12-22T02:03:52.216Z,19.77
2022-12-22T02:06:59.717Z,18.13
2022-12-22T02:10:34.967Z,15.65
2022-12-22T02:13:35.563Z,13.63
2022-12-22T02:16:36.292Z,15.95
2022-12-22T02:20:09.055Z,15.40
2022-12-22T02:23:22.809Z,15.95
2022-12-22T02:26:37.747Z,19.33
2022-12-22T02:29:25.195Z,13.57
2022-12-22T02:32:10.964Z,12.45
2022-12-22T02:34:57.244Z,14.77
2022-12-22T02:37:45.465Z,15.45
2022-12-22T02:40:41.825Z,9.25
2022-12-22T02:43:41.163Z,9.65
2022-12-22T02:46:48.893Z,5.75
2022-12-22T02:49:43.459Z,3.58
2022-12-22T02:52:44.284Z,4.45
2022-12-22T02:55:30.352Z,3.03
2022-12-22T02:58:18.894Z,3.28
2022-12-22T03:01:04.409Z,3.67
2022-12-22T03:03:49.650Z,2.70
2022-12-22T03:06:35.262Z,2.55
2022-12-22T03:09:20.867Z,4.97
2022-12-22T03:12:06.173Z,2.20
2022-12-22T03:14:51.640Z,5.22
2022-12-22T03:17:37.023Z,2.63
2022-12-22T03:20:23.184Z,4.07
2022-12-22T03:23:08.476Z,4.75
2022-12-22T03:25:52.149Z,6.55
2022-12-22T03:28:27.944Z,4.97
2022-12-22T03:30:54.764Z,6.15
2022-12-22T03:33:22.744Z,10.93
2022-12-22T03:35:49.478Z,6.88
2022-12-22T03:38:16.270Z,7.68
2022-12-22T03:40:44.633Z,6.90
2022-12-22T03:43:34.768Z,6.20
2022-12-22T03:46:17.703Z,7.50
2022-12-22T03:49:05.460Z,7.00
2022-12-22T03:51:33.838Z,8.25
2022-12-22T03:54:00.770Z,7.03
2022-12-22T03:56:28.034Z,8.55
2022-12-22T03:58:55.470Z,6.18
2022-12-22T04:01:22.802Z,3.03
2022-12-22T04:03:50.411Z,4.03
2022-12-22T04:06:18.764Z,4.43
2022-12-22T04:08:45.932Z,7.82
2022-12-22T04:11:32.703Z,5.45
2022-12-22T04:14:00.309Z,5.50
2022-12-22T04:16:27.412Z,4.38
2022-12-22T04:18:54.414Z,6.13
2022-12-22T04:21:21.183Z,5.60
2022-12-22T04:23:51.296Z,4.72
2022-12-22T04:26:20.306Z,5.50
2022-12-22T04:28:47.601Z,5.45
2022-12-22T04:31:14.498Z,6.50
2022-12-22T04:33:41.357Z,5.72
2022-12-22T04:36:08.743Z,7.28
2022-12-22T04:38:36.368Z,6.72
2022-12-22T04:41:03.708Z,8.13
2022-12-22T04:43:30.604Z,7.68
2022-12-22T04:45:57.908Z,7.68
2022-12-22T04:48:26.195Z,10.20
2022-12-22T04:50:55.206Z,5.75
2022-12-22T04:53:23.414Z,13.05
2022-12-22T04:55:55.578Z,6.63
2022-12-22T04:58:22.483Z,8.45
2022-12-22T05:00:49.341Z,8.27
2022-12-22T05:03:16.252Z,7.53
2022-12-22T05:05:43.099Z,8.63
2022-12-22T05:08:10.565Z,4.00
2022-12-22T05:10:37.753Z,7.70
2022-12-22T05:13:04.785Z,6.75
2022-12-22T05:15:35.291Z,8.38
2022-12-22T05:18:02.512Z,5.80
2022-12-22T05:20:29.917Z,6.72
2022-12-22T05:22:57.024Z,7.70
2022-12-22T05:25:23.931Z,13.35
2022-12-22T05:27:51.378Z,7.85
2022-12-22T05:30:19.091Z,6.60
2022-12-22T05:32:46.303Z,8.15
2022-12-22T05:35:13.557Z,9.70
2022-12-22T05:37:40.726Z,9.43
2022-12-22T05:40:08.692Z,12.18
2022-12-22T05:42:38.244Z,16.40
2022-12-22T05:45:06.358Z,9.73
2022-12-22T05:47:33.777Z,9.40
2022-12-22T05:50:00.701Z,9.90
2022-12-22T05:52:27.595Z,9.55
2022-12-22T05:54:54.608Z,16.50
2022-12-22T05:57:21.587Z,12.85
2022-12-22T05:59:48.417Z,7.53
2022-12-22T06:02:15.444Z,10.40
2022-12-22T06:04:42.462Z,14.40
2022-12-22T06:07:09.331Z,8.32
2022-12-22T06:09:36.091Z,10.23
2022-12-22T06:12:03.175Z,8.18
2022-12-22T06:14:29.914Z,5.53
2022-12-22T06:16:56.768Z,9.05
2022-12-22T06:19:23.680Z,8.77
2022-12-22T06:21:50.541Z,6.78
2022-12-22T06:24:17.482Z,7.22
2022-12-22T06:26:44.329Z,9.38
2022-12-22T06:29:11.237Z,8.63
2022-12-22T06:31:38.110Z,7.15
2022-12-22T06:34:04.909Z,4.95
2022-12-22T06:36:31.756Z,10.00
2022-12-22T06:38:58.521Z,10.40
2022-12-22T06:41:44.107Z,13.68
2022-12-22T06:44:10.922Z,11.05
2022-12-22T06:46:37.796Z,8.23
2022-12-22T06:49:04.683Z,10.88
2022-12-22T06:51:31.506Z,9.50
2022-12-22T06:53:58.281Z,5.28
2022-12-22T06:56:25.056Z,9.13
2022-12-22T06:58:51.878Z,6.72
2022-12-22T07:01:18.754Z,12.07
2022-12-22T07:03:45.613Z,8.07
2022-12-22T07:06:12.508Z,9.52
2022-12-22T07:08:39.314Z,13.77
2022-12-22T07:11:06.717Z,7.85
2022-12-22T07:13:35.029Z,11.50
2022-12-22T07:16:03.305Z,16.08
2022-12-22T07:18:35.425Z,13.38
2022-12-22T07:21:06.749Z,13.05
2022-12-22T07:23:33.782Z,13.55
2022-12-22T07:26:01.216Z,10.38
2022-12-22T07:28:28.445Z,11.10
2022-12-22T07:30:55.915Z,10.75
2022-12-22T07:33:23.256Z,14.32
2022-12-22T07:36:05.405Z,9.63
2022-12-22T07:38:34.050Z,10.40
2022-12-22T07:41:04.983Z,11.13
2022-12-22T07:43:33.470Z,8.98
2022-12-22T07:46:00.372Z,8.82
2022-12-22T07:48:50.295Z,10.82
2022-12-22T07:51:17.067Z,8.30
2022-12-22T07:53:43.824Z,11.15
2022-12-22T07:56:10.616Z,9.50
2022-12-22T07:58:37.713Z,8.20
2022-12-22T08:01:04.638Z,6.07
2022-12-22T08:03:31.399Z,5.68
2022-12-22T08:05:58.176Z,6.25
2022-12-22T08:08:24.972Z,6.38
2022-12-22T08:10:51.772Z,6.20
2022-12-22T08:13:20.429Z,12.82
2022-12-22T08:15:47.345Z,5.28
2022-12-22T08:18:14.166Z,16.60
2022-12-22T08:20:40.968Z,11.90
2022-12-22T08:23:07.694Z,9.00
2022-12-22T08:25:35.050Z,11.52
2022-12-22T08:28:02.907Z,6.53
2022-12-22T08:30:30.055Z,9.73
2022-12-22T08:32:57.009Z,10.88
2022-12-22T08:35:23.833Z,9.23
2022-12-22T08:37:52.120Z,12.25
2022-12-22T08:40:26.775Z,9.02
2022-12-22T08:42:59.104Z,12.45
2022-12-22T08:45:26.163Z,7.30
2022-12-22T08:47:53.010Z,15.73
2022-12-22T08:50:20.026Z,8.10
2022-12-22T08:52:46.782Z,8.52
2022-12-22T08:55:14.303Z,7.03
2022-12-22T08:57:41.882Z,6.57
2022-12-22T09:00:11.255Z,7.30
2022-12-22T09:02:38.623Z,7.22
2022-12-22T09:05:05.678Z,5.95
2022-12-22T09:07:32.461Z,7.45
2022-12-22T09:09:59.274Z,7.15
2022-12-22T09:12:26.147Z,9.73
2022-12-22T09:17:51.154Z,6.47
2022-12-22T09:20:18.061Z,7.28
2022-12-22T09:22:44.940Z,8.60
2022-12-22T09:25:12.032Z,10.55
2022-12-22T09:27:38.912Z,4.80
2022-12-22T09:30:07.529Z,8.50
2022-12-22T09:32:34.277Z,6.78
2022-12-22T09:35:01.074Z,9.00
2022-12-22T09:37:27.851Z,7.47
2022-12-22T09:39:54.613Z,10.20
2022-12-22T09:42:23.984Z,8.95
2022-12-22T09:44:51.974Z,12.80
2022-12-22T09:47:24.942Z,10.55
2022-12-22T09:49:53.943Z,10.70
2022-12-22T09:52:44.359Z,11.13
2022-12-22T09:55:26.501Z,12.20
2022-12-22T09:57:54.399Z,7.53
2022-12-22T10:00:28.358Z,13.10
2022-12-22T10:03:17.084Z,7.88
2022-12-22T10:05:56.826Z,10.32
2022-12-22T10:08:33.967Z,7.38
2022-12-22T10:11:01.124Z,10.07
2022-12-22T10:13:27.894Z,9.10
2022-12-22T10:15:55.816Z,7.10
2022-12-22T10:18:28.583Z,8.02
2022-12-22T10:21:12.946Z,6.43
2022-12-22T10:23:44.327Z,7.68
2022-12-22T10:26:33.883Z,7.22
2022-12-22T10:29:10.525Z,7.60
2022-12-22T10:31:56.511Z,8.45
2022-12-22T10:34:24.243Z,7.22
2022-12-22T10:36:55.349Z,7.28
2022-12-22T10:39:27.954Z,8.60
2022-12-22T10:42:00.696Z,7.88
2022-12-22T10:44:37.124Z,7.15
2022-12-22T10:47:18.199Z,8.00
2022-12-22T10:49:50.023Z,17.05
2022-12-22T10:52:30.652Z,11.55
2022-12-22T10:55:29.335Z,8.07
2022-12-22T10:58:22.406Z,5.22
2022-12-22T11:01:03.816Z,9.90
2022-12-22T11:03:32.035Z,8.25
2022-12-22T11:06:00.837Z,9.70
2022-12-22T11:08:29.937Z,9.00
2022-12-22T11:11:06.713Z,9.57
2022-12-22T11:13:51.694Z,8.07
2022-12-22T11:16:47.045Z,8.05
2022-12-22T11:19:35.622Z,8.40
2022-12-22T11:22:34.631Z,9.02
2022-12-22T11:25:15.737Z,9.77
2022-12-22T11:28:08.449Z,7.57
2022-12-22T11:30:53.647Z,11.95
2022-12-22T11:33:33.884Z,8.38
2022-12-22T11:36:07.257Z,8.55
2022-12-22T11:38:54.804Z,9.77
2022-12-22T11:41:42.409Z,9.30
2022-12-22T11:44:21.265Z,7.53
2022-12-22T11:47:14.177Z,12.82
2022-12-22T11:50:59.304Z,9.73
2022-12-22T11:53:15.782Z,9.18
2022-12-22T11:56:11.399Z,12.80
2022-12-22T11:59:01.042Z,11.70
2022-12-22T12:01:58.847Z,14.75
2022-12-22T12:04:53.953Z,12.30
2022-12-22T12:07:41.027Z,11.57
2022-12-22T12:10:31.819Z,13.75
2022-12-22T12:13:01.551Z,13.00
2022-12-22T12:15:39.813Z,10.45
2022-12-22T12:18:36.160Z,11.00
2022-12-22T12:21:23.530Z,11.27
2022-12-22T12:24:16.877Z,11.48
2022-12-22T12:27:15.584Z,13.20
2022-12-22T12:30:36.528Z,9.48
2022-12-22T12:32:59.278Z,14.45
2022-12-22T12:35:34.958Z,14.00
2022-12-22T12:38:08.068Z,15.60
2022-12-22T12:40:51.189Z,11.50
2022-12-22T12:43:19.164Z,11.65
2022-12-22T12:45:50.134Z,11.02
2022-12-22T12:48:23.733Z,13.52
2022-12-22T12:50:55.306Z,13.60
2022-12-22T12:53:29.612Z,15.15
2022-12-22T12:56:08.704Z,11.23
2022-12-22T12:58:35.641Z,12.35
2022-12-22T13:01:33.091Z,18.35
2022-12-22T13:04:03.687Z,11.70
2022-12-22T13:06:50.268Z,14.95
2022-12-22T13:12:38.417Z,19.08
2022-12-22T13:15:28.061Z,12.93
2022-12-22T13:17:55.019Z,19.73
2022-12-22T13:20:35.204Z,16.63
2022-12-22T13:23:10.413Z,10.23
2022-12-22T13:25:48.007Z,15.52
2022-12-22T13:28:17.287Z,13.50
2022-12-22T13:30:56.876Z,17.60
2022-12-22T13:33:28.913Z,11.82
2022-12-22T13:35:59.267Z,13.13
2022-12-22T13:38:30.142Z,13.07
2022-12-22T13:41:03.493Z,17.80
2022-12-22T13:43:32.729Z,16.08
2022-12-22T13:46:02.701Z,15.20
2022-12-22T13:48:47.701Z,10.30
2022-12-22T13:51:32.640Z,10.77
2022-12-22T13:54:09.099Z,14.50
2022-12-22T13:56:41.462Z,10.07
2022-12-22T13:59:30.120Z,17.13
2022-12-22T14:02:15.512Z,10.77
2022-12-22T14:04:51.751Z,12.75
2022-12-22T14:07:20.601Z,12.88
2022-12-22T14:09:50.219Z,13.98
2022-12-22T14:12:21.238Z,18.65
2022-12-22T14:14:50.880Z,10.65
2022-12-22T14:17:27.315Z,17.65
2022-12-22T14:19:57.581Z,9.88
2022-12-22T14:22:39.945Z,10.75
2022-12-22T14:25:18.162Z,12.00
2022-12-22T14:27:48.794Z,16.25
2022-12-22T14:30:19.105Z,13.05
2022-12-22T14:32:54.462Z,12.07
2022-12-22T14:35:22.272Z,9.90
2022-12-22T14:37:54.771Z,11.38
2022-12-22T14:40:42.519Z,9.02
2022-12-22T14:43:18.407Z,15.98
2022-12-22T14:45:47.527Z,11.02
2022-12-22T14:48:40.398Z,14.95
2022-12-22T14:51:07.790Z,15.45
2022-12-22T14:53:45.572Z,11.85
2022-12-22T14:56:18.470Z,11.90
2022-12-22T14:58:46.888Z,9.90
2022-12-22T15:01:28.203Z,12.63
2022-12-22T15:04:04.591Z,9.18
2022-12-22T15:06:40.651Z,15.07
2022-12-22T15:09:13.690Z,15.32
2022-12-22T15:11:49.242Z,14.35
2022-12-22T15:14:21.922Z,14.50
2022-12-22T15:16:49.602Z,12.27
2022-12-22T15:19:18.867Z,12.80
2022-12-22T15:21:45.717Z,13.10
2022-12-22T15:24:17.524Z,21.42
2022-12-22T15:26:45.528Z,13.85
2022-12-22T15:29:12.953Z,19.35
2022-12-22T15:31:42.318Z,18.75
2022-12-22T15:34:33.194Z,14.07
2022-12-22T15:37:01.884Z,16.90
2022-12-22T15:39:28.685Z,19.00
2022-12-22T15:41:55.414Z,12.00
2022-12-22T15:44:22.607Z,21.90
2022-12-22T15:46:57.423Z,19.08
2022-12-22T15:49:26.733Z,16.25
2022-12-22T15:51:57.254Z,15.50
2022-12-22T15:54:26.317Z,16.17
2022-12-22T15:56:54.602Z,15.15
2022-12-22T15:59:25.542Z,14.38
2022-12-22T16:02:00.294Z,14.95
2022-12-22T16:04:28.429Z,16.02
2022-12-22T16:06:56.304Z,20.10
2022-12-22T16:09:28.958Z,16.58
2022-12-22T16:11:56.899Z,15.73
2022-12-22T16:14:24.331Z,21.15
2022-12-22T16:16:51.428Z,14.25
2022-12-22T16:19:19.112Z,15.98
2022-12-22T16:21:48.600Z,14.25
2022-12-22T16:24:27.544Z,10.70
2022-12-22T16:26:57.042Z,14.13
2022-12-22T16:29:25.117Z,16.38
2022-12-22T16:31:52.518Z,17.17
2022-12-22T16:34:19.777Z,15.52
2022-12-22T16:36:49.575Z,13.57
2022-12-22T16:39:17.282Z,15.18
2022-12-22T16:41:45.280Z,15.52
2022-12-22T16:47:05.862Z,15.90
2022-12-22T16:49:32.750Z,17.08
2022-12-22T16:52:00.322Z,15.52
2022-12-22T16:54:27.467Z,18.80
2022-12-22T16:57:15.899Z,15.48
2022-12-22T16:59:48.184Z,21.48
2022-12-22T17:02:30.299Z,15.18
2022-12-22T17:05:01.196Z,15.50
2022-12-22T17:07:32.352Z,18.77
2022-12-22T17:10:02.012Z,14.40
2022-12-22T17:12:31.340Z,14.30
2022-12-22T17:14:59.230Z,16.63
2022-12-22T17:17:32.864Z,10.40
2022-12-22T17:20:01.009Z,15.13
2022-12-22T17:22:30.319Z,14.70
2022-12-22T17:25:01.972Z,11.70
2022-12-22T17:27:33.485Z,13.55
2022-12-22T17:30:05.733Z,13.13
2022-12-22T17:32:32.660Z,15.00
2022-12-22T17:34:59.433Z,12.75
2022-12-22T17:37:26.582Z,12.63
2022-12-22T17:39:59.024Z,14.70
2022-12-22T17:42:26.154Z,10.95
2022-12-22T17:44:53.072Z,13.15
2022-12-22T17:47:26.713Z,16.85
2022-12-22T17:49:59.087Z,11.07
2022-12-22T17:52:28.004Z,9.10
2022-12-22T17:54:55.260Z,11.25
2022-12-22T17:57:30.059Z,12.98
2022-12-22T17:59:56.954Z,9.18
2022-12-22T18:02:25.667Z,14.55
2022-12-22T18:04:52.976Z,11.73
2022-12-22T18:07:22.568Z,8.65
2022-12-22T18:09:53.270Z,11.57
2022-12-22T18:12:26.899Z,8.07
2022-12-22T18:14:54.333Z,10.98
2022-12-22T18:17:28.575Z,12.10
2022-12-22T18:20:00.155Z,12.73
2022-12-22T18:22:28.973Z,10.70
2022-12-22T18:24:56.214Z,11.27
2022-12-22T18:27:23.694Z,9.15
2022-12-22T18:29:50.563Z,11.13
2022-12-22T18:32:26.340Z,14.20
2022-12-22T18:34:54.233Z,13.02
2022-12-22T18:37:21.316Z,15.05
2022-12-22T18:39:48.313Z,16.10
2022-12-22T18:42:23.557Z,10.35
2022-12-22T18:44:51.264Z,12.77
2022-12-22T18:47:18.951Z,15.18
2022-12-22T18:49:46.264Z,11.85
2022-12-22T18:52:22.138Z,14.63
2022-12-22T18:54:49.956Z,12.15
2022-12-22T18:57:19.377Z,16.88
2022-12-22T18:59:48.138Z,11.63
2022-12-22T19:02:26.205Z,17.08
2022-12-22T19:04:54.203Z,16.42
2022-12-22T19:07:23.613Z,13.68
2022-12-22T19:09:51.671Z,8.35
2022-12-22T19:12:22.894Z,12.35
2022-12-22T19:14:54.468Z,9.75
2022-12-22T19:17:24.710Z,9.13
2022-12-22T19:19:51.639Z,10.38
2022-12-22T19:22:18.472Z,11.23
2022-12-22T19:24:45.416Z,12.98
2022-12-22T19:27:23.776Z,10.20
2022-12-22T19:30:00.824Z,8.80
2022-12-22T19:32:38.111Z,9.85
2022-12-22T19:35:18.519Z,10.40
2022-12-22T19:37:46.999Z,15.00
2022-12-22T19:40:16.112Z,16.85
2022-12-22T19:42:45.057Z,13.95
2022-12-22T19:45:21.442Z,15.75
2022-12-22T19:47:49.160Z,8.00
2022-12-22T19:50:23.326Z,11.75
2022-12-22T19:52:51.000Z,10.27
2022-12-22T19:55:18.074Z,11.82
2022-12-22T19:57:48.556Z,6.97
2022-12-22T20:00:24.462Z,10.68
2022-12-22T20:02:54.384Z,13.52
2022-12-22T20:05:24.221Z,9.40
2022-12-22T20:07:52.893Z,9.10
2022-12-22T20:10:20.572Z,10.88
2022-12-22T20:12:51.302Z,10.98
2022-12-22T20:15:22.245Z,11.75
2022-12-22T20:17:51.706Z,11.32
2022-12-22T20:20:21.630Z,15.48
2022-12-22T20:22:51.333Z,9.00
2022-12-22T20:25:24.564Z,12.20
2022-12-22T20:27:52.773Z,9.77
2022-12-22T20:30:23.562Z,9.73
2022-12-22T20:32:50.566Z,9.57
2022-12-22T20:35:18.555Z,13.90
2022-12-22T20:37:45.587Z,6.90
2022-12-22T20:40:25.762Z,12.80
2022-12-22T20:42:52.974Z,9.70
2022-12-22T20:45:23.469Z,12.15
2022-12-22T20:47:51.131Z,8.32
2022-12-22T20:50:24.082Z,10.00
2022-12-22T20:52:51.573Z,9.75
2022-12-22T20:55:20.965Z,7.75
2022-12-22T20:57:48.771Z,10.00
2022-12-22T21:00:28.938Z,9.85
2022-12-22T21:02:55.815Z,8.32
2022-12-22T21:05:22.670Z,9.63
2022-12-22T21:07:49.934Z,11.73
2022-12-22T21:10:26.252Z,9.70
2022-12-22T21:12:53.433Z,15.02
2022-12-22T21:15:26.371Z,8.90
2022-12-22T21:17:58.020Z,11.15
2022-12-22T21:20:28.067Z,6.45
2022-12-22T21:22:55.069Z,7.40
2022-12-22T21:25:23.130Z,7.30
2022-12-22T21:27:51.530Z,11.65
2022-12-22T21:30:24.584Z,7.97
2022-12-22T21:32:52.546Z,11.05
2022-12-22T21:35:23.624Z,5.05
2022-12-22T21:37:52.526Z,6.85
2022-12-22T21:40:28.133Z,8.60
2022-12-22T21:42:55.980Z,8.57
2022-12-22T21:45:29.775Z,5.80
2022-12-22T21:48:00.811Z,5.60
2022-12-22T21:50:30.310Z,6.18
2022-12-22T21:52:57.440Z,6.97
2022-12-22T21:55:28.370Z,7.18
2022-12-22T21:57:55.818Z,5.57
2022-12-22T22:00:23.651Z,6.97
2022-12-22T22:02:52.065Z,6.57
2022-12-22T22:05:29.153Z,6.47
2022-12-22T22:07:57.258Z,4.90
2022-12-22T22:10:32.921Z,6.20
2022-12-22T22:13:00.129Z,7.38
2022-12-22T22:15:28.749Z,11.18
2022-12-22T22:18:01.335Z,9.00
2022-12-22T22:20:33.879Z,5.53
2022-12-22T22:23:00.718Z,4.45
2022-12-22T22:25:28.001Z,4.75
2022-12-22T22:27:58.751Z,6.22
2022-12-22T22:30:26.036Z,4.90
2022-12-22T22:32:53.664Z,8.00
2022-12-22T22:35:21.048Z,6.28
2022-12-22T22:37:50.697Z,9.45
2022-12-22T22:40:20.873Z,4.35
2022-12-22T22:42:47.861Z,7.28
2022-12-22T22:45:16.714Z,5.43
2022-12-22T22:47:43.411Z,3.80
2022-12-22T22:50:10.261Z,7.93
2022-12-22T22:52:37.384Z,5.43
2022-12-22T22:55:04.637Z,6.43
2022-12-22T22:57:31.528Z,5.63
2022-12-22T22:59:58.415Z,5.65
2022-12-22T23:02:25.383Z,6.55
2022-12-22T23:04:52.401Z,4.10
2022-12-22T23:07:19.229Z,7.00
2022-12-22T23:09:46.376Z,3.58
2022-12-22T23:12:13.246Z,4.38
2022-12-22T23:14:40.078Z,3.33
2022-12-22T23:17:06.967Z,3.67
2022-12-22T23:19:33.803Z,3.10
2022-12-22T23:22:00.828Z,4.93
2022-12-22T23:24:27.595Z,4.13
2022-12-22T23:26:54.675Z,4.22
2022-12-22T23:29:21.407Z,3.47
2022-12-22T23:31:48.379Z,4.55
2022-12-22T23:34:15.127Z,3.08
2022-12-22T23:36:41.923Z,3.47
2022-12-22T23:39:08.796Z,2.53
2022-12-22T23:41:36.241Z,2.28
2022-12-22T23:44:03.114Z,4.50
2022-12-22T23:46:29.906Z,1.40
2022-12-22T23:48:58.198Z,1.65
2022-12-22T23:51:27.686Z,1.58
2022-12-22T23:53:56.068Z,2.75
2022-12-22T23:56:22.902Z,3.75
2022-12-22T23:58:54.506Z,2.45
